createdAt,value
2022-09-15T00:00:53.977Z,14.80
2022-09-15T00:03:21.853Z,14.40
2022-09-15T00:05:48.791Z,11.80
2022-09-15T00:08:15.904Z,14.40
2022-09-15T00:10:53.696Z,12.50
2022-09-15T00:13:21.307Z,15.77
2022-09-15T00:15:48.424Z,9.35
2022-09-15T00:18:15.182Z,12.77
2022-09-15T00:20:43.895Z,13.13
2022-09-15T00:23:16.712Z,12.27
2022-09-15T00:25:53.358Z,9.40
2022-09-15T00:28:22.348Z,9.60
2022-09-15T00:30:51.749Z,14.10
2022-09-15T00:33:19.615Z,11.85
2022-09-15T00:35:53.496Z,11.93
2022-09-15T00:38:20.538Z,13.55
2022-09-15T00:40:52.416Z,12.48
2022-09-15T00:43:24.252Z,12.23
2022-09-15T00:45:52.103Z,10.60
2022-09-15T00:48:22.561Z,12.50
2022-09-15T00:50:57.770Z,11.35
2022-09-15T00:53:26.244Z,12.75
2022-09-15T00:55:54.469Z,15.65
2022-09-15T00:58:28.474Z,10.57
2022-09-15T01:00:58.206Z,11.52
2022-09-15T01:03:26.428Z,10.52
2022-09-15T01:06:02.273Z,13.98
2022-09-15T01:08:34.863Z,10.30
2022-09-15T01:11:02.681Z,9.13
2022-09-15T01:13:29.938Z,12.77
2022-09-15T01:16:21.309Z,9.65
2022-09-15T01:19:15.416Z,10.65
2022-09-15T01:21:58.078Z,13.18
2022-09-15T01:24:40.600Z,11.75
2022-09-15T01:27:44.707Z,12.45
2022-09-15T01:30:22.019Z,13.30
2022-09-15T01:33:07.078Z,14.73
2022-09-15T01:35:39.824Z,14.63
2022-09-15T01:38:14.786Z,15.07
2022-09-15T01:41:06.381Z,11.10
2022-09-15T01:43:36.092Z,11.77
2022-09-15T01:46:04.682Z,12.85
2022-09-15T01:48:35.636Z,13.43
2022-09-15T01:51:03.778Z,12.23
2022-09-15T01:53:30.406Z,13.98
2022-09-15T01:56:03.046Z,12.93
2022-09-15T01:58:29.767Z,15.50
2022-09-15T02:01:19.184Z,11.07
2022-09-15T02:03:56.731Z,10.88
2022-09-15T02:06:46.333Z,19.83
2022-09-15T02:09:18.991Z,11.13
2022-09-15T02:12:08.609Z,12.95
2022-09-15T02:14:48.124Z,11.60
2022-09-15T02:17:21.363Z,13.07
2022-09-15T02:19:52.896Z,12.35
2022-09-15T02:22:28.957Z,14.95
2022-09-15T02:25:03.126Z,11.43
2022-09-15T02:27:32.975Z,11.85
2022-09-15T02:30:06.083Z,12.45
2022-09-15T02:32:34.946Z,14.63
2022-09-15T02:35:06.972Z,14.50
2022-09-15T02:37:37.038Z,10.43
2022-09-15T02:40:04.586Z,12.23
2022-09-15T02:42:32.223Z,16.73
2022-09-15T02:45:00.898Z,14.23
2022-09-15T02:47:28.668Z,10.98
2022-09-15T02:49:55.765Z,12.32
2022-09-15T02:52:23.985Z,13.98
2022-09-15T02:54:50.717Z,16.48
2022-09-15T02:57:17.444Z,12.63
2022-09-15T03:00:02.780Z,12.25
2022-09-15T03:02:29.861Z,10.20
2022-09-15T03:04:56.537Z,10.77
2022-09-15T03:07:23.609Z,13.73
2022-09-15T03:09:50.524Z,11.90
2022-09-15T03:12:17.791Z,10.75
2022-09-15T03:14:46.052Z,13.98
2022-09-15T03:17:13.394Z,14.77
2022-09-15T03:19:40.098Z,16.95
2022-09-15T03:22:09.507Z,12.73
2022-09-15T03:24:38.509Z,11.93
2022-09-15T03:27:05.563Z,12.90
2022-09-15T03:29:32.981Z,14.05
2022-09-15T03:31:59.655Z,11.60
2022-09-15T03:34:26.265Z,11.10
2022-09-15T03:36:52.897Z,12.88
2022-09-15T03:39:19.485Z,10.82
2022-09-15T03:41:46.040Z,14.45
2022-09-15T03:44:13.070Z,11.60
2022-09-15T03:46:39.632Z,16.50
2022-09-15T03:49:06.270Z,8.88
2022-09-15T03:51:32.918Z,10.18
2022-09-15T03:53:59.516Z,11.27
2022-09-15T03:56:31.336Z,10.32
2022-09-15T03:58:59.374Z,13.10
2022-09-15T04:01:26.364Z,16.30
2022-09-15T04:03:52.981Z,15.48
2022-09-15T04:06:21.086Z,12.90
2022-09-15T04:08:48.891Z,11.63
2022-09-15T04:11:16.914Z,15.95
2022-09-15T04:13:45.132Z,13.93
2022-09-15T04:16:18.409Z,11.40
2022-09-15T04:18:47.222Z,13.45
2022-09-15T04:21:17.034Z,11.30
2022-09-15T04:23:45.369Z,14.80
2022-09-15T04:26:22.107Z,13.90
2022-09-15T04:28:48.740Z,16.92
2022-09-15T04:31:17.109Z,17.27
2022-09-15T04:34:04.930Z,14.77
2022-09-15T04:36:31.757Z,13.10
2022-09-15T04:38:58.948Z,17.88
2022-09-15T04:41:29.607Z,14.43
2022-09-15T04:43:59.928Z,16.85
2022-09-15T04:46:32.065Z,16.00
2022-09-15T04:48:58.988Z,17.65
2022-09-15T04:51:25.628Z,15.13
2022-09-15T04:53:56.676Z,12.27
2022-09-15T04:56:35.185Z,15.90
2022-09-15T04:59:04.105Z,19.45
2022-09-15T05:01:36.788Z,18.73
2022-09-15T05:04:04.687Z,13.10
2022-09-15T05:06:32.263Z,15.93
2022-09-15T05:08:58.969Z,16.77
2022-09-15T05:11:26.496Z,17.42
2022-09-15T05:13:53.470Z,16.58
2022-09-15T05:16:22.734Z,16.95
2022-09-15T05:18:51.036Z,21.10
2022-09-15T05:21:19.901Z,18.08
2022-09-15T05:23:48.246Z,15.20
2022-09-15T05:26:17.814Z,11.80
2022-09-15T05:28:45.009Z,17.27
2022-09-15T05:31:15.057Z,21.55
2022-09-15T05:33:41.683Z,15.73
2022-09-15T05:36:08.314Z,20.67
2022-09-15T05:38:35.582Z,18.92
2022-09-15T05:41:07.740Z,16.38
2022-09-15T05:43:36.018Z,17.38
2022-09-15T05:46:03.376Z,18.42
2022-09-15T05:48:30.308Z,14.32
2022-09-15T05:50:57.364Z,15.57
2022-09-15T05:53:25.327Z,14.35
2022-09-15T05:55:56.852Z,15.77
2022-09-15T05:58:23.635Z,22.38
2022-09-15T06:00:50.502Z,21.52
2022-09-15T06:03:17.476Z,19.50
2022-09-15T06:05:44.099Z,22.15
2022-09-15T06:08:11.314Z,26.80
2022-09-15T06:10:37.902Z,19.10
2022-09-15T06:13:04.547Z,24.08
2022-09-15T06:15:31.914Z,20.95
2022-09-15T06:17:58.796Z,17.95
2022-09-15T06:20:25.711Z,22.35
2022-09-15T06:22:53.899Z,21.48
2022-09-15T06:25:23.709Z,19.98
2022-09-15T06:27:50.733Z,17.70
2022-09-15T06:30:18.013Z,19.33
2022-09-15T06:32:48.067Z,22.05
2022-09-15T06:35:15.507Z,21.05
2022-09-15T06:37:42.870Z,18.50
2022-09-15T06:40:10.247Z,16.45
2022-09-15T06:42:36.914Z,20.45
2022-09-15T06:45:06.095Z,18.48
2022-09-15T06:47:34.203Z,17.75
2022-09-15T06:50:01.181Z,17.15
2022-09-15T06:52:28.086Z,15.68
2022-09-15T06:54:54.770Z,17.42
2022-09-15T06:57:21.447Z,17.08
2022-09-15T06:59:49.586Z,18.67
2022-09-15T07:02:16.291Z,18.15
2022-09-15T07:04:42.929Z,17.70
2022-09-15T07:07:11.231Z,22.05
2022-09-15T07:09:41.026Z,25.27
2022-09-15T07:12:08.220Z,22.70
2022-09-15T07:14:34.859Z,26.08
2022-09-15T07:17:01.500Z,23.23
2022-09-15T07:19:28.077Z,20.70
2022-09-15T07:21:54.756Z,18.73
2022-09-15T07:24:22.131Z,23.02
2022-09-15T07:26:48.700Z,18.52
2022-09-15T07:29:15.352Z,21.73
2022-09-15T07:31:41.959Z,19.73
2022-09-15T07:34:08.673Z,17.77
2022-09-15T07:36:35.610Z,18.52
2022-09-15T07:39:04.229Z,16.52
2022-09-15T07:41:32.534Z,25.23
2022-09-15T07:44:00.619Z,24.08
2022-09-15T07:46:30.148Z,19.40
2022-09-15T07:48:56.778Z,17.83
2022-09-15T07:51:24.499Z,23.10
2022-09-15T07:53:51.702Z,22.00
2022-09-15T07:56:18.874Z,22.42
2022-09-15T07:58:47.537Z,14.73
2022-09-15T08:01:15.340Z,14.70
2022-09-15T08:03:49.548Z,12.27
2022-09-15T08:06:21.665Z,16.45
2022-09-15T08:08:49.207Z,16.75
2022-09-15T08:11:19.284Z,15.40
2022-09-15T08:13:50.629Z,20.58
2022-09-15T08:16:22.357Z,14.57
2022-09-15T08:18:51.521Z,15.82
2022-09-15T08:21:22.840Z,15.98
2022-09-15T08:23:56.594Z,12.77
2022-09-15T08:26:25.185Z,11.48
2022-09-15T08:28:52.054Z,14.23
2022-09-15T08:31:19.119Z,14.07
2022-09-15T08:33:53.499Z,11.65
2022-09-15T08:36:21.604Z,11.65
2022-09-15T08:38:48.404Z,11.40
2022-09-15T08:41:18.712Z,9.55
2022-09-15T08:43:57.617Z,9.65
2022-09-15T08:46:32.563Z,8.45
2022-09-15T08:49:35.503Z,9.77
2022-09-15T08:52:13.687Z,6.35
2022-09-15T08:54:56.435Z,8.45
2022-09-15T08:57:34.238Z,7.03
2022-09-15T09:00:02.642Z,8.43
2022-09-15T09:02:47.282Z,8.38
2022-09-15T09:05:30.234Z,8.63
2022-09-15T09:08:18.311Z,13.23
2022-09-15T09:10:44.874Z,7.05
2022-09-15T09:13:35.279Z,6.82
2022-09-15T09:16:15.325Z,5.68
2022-09-15T09:19:12.570Z,6.63
2022-09-15T09:21:45.443Z,6.88
2022-09-15T09:24:17.490Z,5.82
2022-09-15T09:26:54.438Z,8.68
2022-09-15T09:29:43.343Z,9.48
2022-09-15T09:32:21.667Z,7.65
2022-09-15T09:34:54.361Z,9.38
2022-09-15T09:37:22.458Z,7.25
2022-09-15T09:39:49.159Z,9.35
2022-09-15T09:42:18.541Z,8.50
2022-09-15T09:44:47.267Z,8.65
2022-09-15T09:47:14.194Z,6.10
2022-09-15T09:49:47.071Z,7.32
2022-09-15T09:52:14.151Z,9.60
2022-09-15T09:54:42.328Z,9.13
2022-09-15T09:57:30.545Z,8.48
2022-09-15T09:59:57.573Z,10.27
2022-09-15T10:02:26.728Z,9.98
2022-09-15T10:05:21.627Z,7.82
2022-09-15T10:07:48.999Z,8.13
2022-09-15T10:10:25.084Z,7.75
2022-09-15T10:12:56.552Z,9.85
2022-09-15T10:15:28.247Z,9.52
2022-09-15T10:17:56.582Z,13.15
2022-09-15T10:20:55.416Z,8.07
2022-09-15T10:23:31.471Z,4.95
2022-09-15T10:26:16.795Z,4.32
2022-09-15T10:28:44.650Z,6.18
2022-09-15T10:31:13.855Z,5.97
2022-09-15T10:33:46.466Z,7.07
2022-09-15T10:36:15.525Z,13.32
2022-09-15T10:38:50.072Z,12.15
2022-09-15T10:41:27.895Z,14.48
2022-09-15T10:44:13.674Z,11.05
2022-09-15T10:46:48.328Z,12.40
2022-09-15T10:49:42.457Z,12.25
2022-09-15T10:52:29.782Z,7.22
2022-09-15T10:55:42.486Z,18.25
2022-09-15T10:58:28.871Z,9.48
2022-09-15T11:01:21.197Z,9.75
2022-09-15T11:04:11.151Z,9.25
2022-09-15T11:06:46.963Z,7.75
2022-09-15T11:12:08.973Z,7.93
2022-09-15T11:14:56.494Z,12.40
2022-09-15T11:17:42.370Z,14.68
2022-09-15T11:20:14.952Z,14.52
2022-09-15T11:22:56.577Z,13.98
2022-09-15T11:25:26.448Z,13.88
2022-09-15T11:27:59.895Z,7.93
2022-09-15T11:30:35.082Z,10.32
2022-09-15T11:33:05.219Z,8.07
2022-09-15T11:35:47.869Z,6.93
2022-09-15T11:38:50.601Z,9.13
2022-09-15T11:41:58.735Z,13.88
2022-09-15T11:44:32.614Z,10.85
2022-09-15T11:47:04.956Z,16.95
2022-09-15T11:49:41.966Z,19.88
2022-09-15T11:52:24.836Z,5.22
2022-09-15T11:55:03.428Z,6.03
2022-09-15T11:57:39.220Z,5.43
2022-09-15T12:02:53.423Z,19.08
2022-09-15T12:05:27.787Z,22.13
2022-09-15T12:08:05.202Z,14.00
2022-09-15T12:10:40.552Z,16.88
2022-09-15T12:13:18.388Z,15.77
2022-09-15T12:15:50.803Z,9.57
2022-09-15T12:18:39.032Z,8.15
2022-09-15T12:21:40.019Z,9.35
2022-09-15T12:24:46.022Z,9.38
2022-09-15T12:27:17.863Z,9.95
2022-09-15T12:29:55.849Z,11.13
2022-09-15T12:32:27.011Z,13.00
2022-09-15T12:34:58.494Z,14.25
2022-09-15T12:37:29.544Z,13.63
2022-09-15T12:39:56.376Z,16.58
2022-09-15T12:42:24.019Z,14.57
2022-09-15T12:45:02.973Z,16.85
2022-09-15T12:47:31.985Z,17.45
2022-09-15T12:50:04.787Z,19.73
2022-09-15T12:52:31.972Z,30.60
2022-09-15T12:55:02.840Z,26.30
2022-09-15T12:57:35.815Z,16.70
2022-09-15T13:00:20.440Z,14.20
2022-09-15T13:02:51.123Z,16.48
2022-09-15T13:05:42.390Z,13.93
2022-09-15T13:08:15.436Z,15.77
2022-09-15T13:10:59.813Z,15.52
2022-09-15T13:13:39.278Z,12.98
2022-09-15T13:16:14.801Z,12.50
2022-09-15T13:18:45.134Z,15.77
2022-09-15T13:21:15.920Z,13.68
2022-09-15T13:23:49.889Z,11.57
2022-09-15T13:26:22.701Z,14.45
2022-09-15T13:28:52.757Z,13.65
2022-09-15T13:31:32.291Z,13.77
2022-09-15T13:40:40.144Z,13.93
2022-09-15T13:43:25.540Z,13.05
2022-09-15T13:46:23.974Z,15.80
2022-09-15T13:49:28.179Z,23.35
2022-09-15T13:52:10.602Z,21.33
2022-09-15T13:54:37.167Z,18.45
2022-09-15T13:57:04.718Z,15.05
2022-09-15T13:59:33.398Z,17.52
2022-09-15T14:02:00.862Z,14.65
2022-09-15T14:04:30.988Z,15.20
2022-09-15T14:07:02.045Z,14.32
2022-09-15T14:09:43.306Z,17.38
2022-09-15T14:12:15.217Z,117.63
2022-09-15T14:14:54.075Z,52.88
2022-09-15T14:17:26.419Z,55.72
2022-09-15T14:20:01.137Z,80.43
2022-09-15T14:22:32.942Z,33.67
2022-09-15T14:25:14.251Z,28.35
2022-09-15T14:27:46.113Z,23.42
2022-09-15T14:30:29.394Z,19.20
2022-09-15T14:33:03.233Z,25.88
2022-09-15T14:35:36.585Z,38.15
2022-09-15T14:38:03.746Z,36.97
2022-09-15T14:40:34.985Z,46.05
2022-09-15T14:43:04.491Z,40.40
2022-09-15T14:45:54.199Z,33.03
2022-09-15T14:48:28.003Z,28.35
2022-09-15T14:51:02.325Z,33.75
2022-09-15T14:53:33.048Z,25.88
2022-09-15T14:56:08.263Z,22.67
2022-09-15T14:58:46.315Z,20.77
2022-09-15T15:01:39.302Z,12.13
2022-09-15T15:04:24.842Z,15.18
2022-09-15T15:07:21.997Z,14.43
2022-09-15T15:10:00.681Z,15.57
2022-09-15T15:12:34.560Z,12.90
2022-09-15T15:15:01.928Z,12.52
2022-09-15T15:17:37.452Z,13.23
2022-09-15T15:20:06.824Z,15.32
2022-09-15T15:22:34.364Z,13.18
2022-09-15T15:25:02.328Z,13.95
2022-09-15T15:27:34.933Z,14.85
2022-09-15T15:30:33.364Z,28.73
2022-09-15T15:33:04.467Z,33.25
2022-09-15T15:35:37.548Z,29.67
2022-09-15T15:38:25.294Z,35.65
2022-09-15T15:41:00.987Z,32.95
2022-09-15T15:43:28.883Z,30.00
2022-09-15T15:46:00.995Z,28.73
2022-09-15T15:48:37.976Z,33.75
2022-09-15T15:51:06.543Z,37.28
2022-09-15T15:53:34.312Z,38.63
2022-09-15T15:56:02.129Z,35.78
2022-09-15T15:58:28.720Z,27.23
2022-09-15T16:00:56.846Z,17.52
2022-09-15T16:03:25.132Z,19.42
2022-09-15T16:05:54.708Z,21.83
2022-09-15T16:08:34.162Z,20.20
2022-09-15T16:11:02.486Z,23.70
2022-09-15T16:13:29.567Z,26.08
2022-09-15T16:16:00.318Z,28.92
2022-09-15T16:18:33.362Z,30.77
2022-09-15T16:20:59.907Z,35.58
2022-09-15T16:23:26.618Z,31.83
2022-09-15T16:26:05.272Z,28.73
2022-09-15T16:28:33.183Z,24.15
2022-09-15T16:31:00.032Z,27.00
2022-09-15T16:33:27.032Z,25.23
2022-09-15T16:36:07.029Z,21.77
2022-09-15T16:38:35.417Z,20.38
2022-09-15T16:41:03.273Z,23.20
2022-09-15T16:43:29.893Z,27.33
2022-09-15T16:45:56.702Z,28.85
2022-09-15T16:48:23.474Z,26.52
2022-09-15T16:53:40.039Z,24.23
2022-09-15T16:56:10.375Z,20.83
2022-09-15T16:58:36.971Z,20.88
2022-09-15T17:01:04.010Z,19.05
2022-09-15T17:03:31.240Z,18.00
2022-09-15T17:06:00.413Z,16.83
2022-09-15T17:08:30.134Z,17.95
2022-09-15T17:11:05.472Z,17.30
2022-09-15T17:13:34.373Z,27.35
2022-09-15T17:16:01.708Z,17.00
2022-09-15T17:18:29.188Z,19.95
2022-09-15T17:20:56.322Z,15.07
2022-09-15T17:23:32.586Z,15.20
2022-09-15T17:26:04.473Z,13.82
2022-09-15T17:28:36.618Z,16.70
2022-09-15T17:31:21.230Z,14.23
2022-09-15T17:33:51.208Z,15.68
2022-09-15T17:36:18.422Z,18.90
2022-09-15T17:38:45.567Z,25.17
2022-09-15T17:41:27.280Z,21.15
2022-09-15T17:43:53.963Z,22.75
2022-09-15T17:46:20.730Z,25.77
2022-09-15T17:48:47.591Z,27.48
2022-09-15T17:51:17.664Z,24.92
2022-09-15T17:53:46.850Z,23.80
2022-09-15T17:56:14.557Z,23.20
2022-09-15T17:58:41.511Z,25.52
2022-09-15T18:01:09.607Z,23.73
2022-09-15T18:03:37.612Z,24.67
2022-09-15T18:06:07.198Z,23.60
2022-09-15T18:08:35.873Z,20.70
2022-09-15T18:11:03.611Z,23.52
2022-09-15T18:13:31.304Z,21.85
2022-09-15T18:16:02.901Z,22.00
2022-09-15T18:18:31.208Z,20.70
2022-09-15T18:20:58.400Z,22.45
2022-09-15T18:23:30.938Z,22.38
2022-09-15T18:25:57.739Z,25.88
2022-09-15T18:28:24.614Z,21.95
2022-09-15T18:30:51.305Z,25.85
2022-09-15T18:33:21.997Z,25.73
2022-09-15T18:35:56.950Z,26.85
2022-09-15T18:38:23.824Z,25.20
2022-09-15T18:40:53.471Z,26.10
2022-09-15T18:43:21.446Z,24.50
2022-09-15T18:45:49.216Z,26.75
2022-09-15T18:48:16.002Z,21.05
2022-09-15T18:50:44.545Z,21.17
2022-09-15T18:53:13.980Z,23.33
2022-09-15T18:55:41.948Z,20.00
2022-09-15T18:58:09.054Z,25.40
2022-09-15T19:00:37.460Z,22.35
2022-09-15T19:03:06.148Z,22.88
2022-09-15T19:05:33.562Z,18.83
2022-09-15T19:08:02.474Z,19.60
2022-09-15T19:10:29.323Z,21.38
2022-09-15T19:12:56.050Z,26.52
2022-09-15T19:15:23.899Z,23.48
2022-09-15T19:17:50.786Z,25.25
2022-09-15T19:20:17.752Z,23.75
2022-09-15T19:22:45.127Z,21.92
2022-09-15T19:25:13.501Z,25.23
2022-09-15T19:27:41.284Z,21.52
2022-09-15T19:30:10.218Z,19.13
2022-09-15T19:32:38.322Z,20.00
2022-09-15T19:35:05.792Z,20.95
2022-09-15T19:37:37.635Z,16.95
2022-09-15T19:40:10.754Z,17.08
2022-09-15T19:42:39.126Z,20.45
2022-09-15T19:45:06.830Z,21.48
2022-09-15T19:47:33.935Z,14.85
2022-09-15T19:50:00.662Z,15.77
2022-09-15T19:52:28.340Z,15.18
2022-09-15T19:54:55.040Z,17.40
2022-09-15T19:57:21.705Z,16.85
2022-09-15T19:59:48.299Z,16.42
2022-09-15T20:02:14.893Z,15.90
2022-09-15T20:04:41.626Z,13.38
2022-09-15T20:07:08.270Z,15.30
2022-09-15T20:09:35.289Z,15.25
2022-09-15T20:12:04.196Z,13.07
2022-09-15T20:14:31.441Z,15.15
2022-09-15T20:17:01.438Z,12.52
2022-09-15T20:19:29.775Z,13.75
2022-09-15T20:21:56.620Z,14.07
2022-09-15T20:24:27.164Z,13.82
2022-09-15T20:26:56.449Z,13.70
2022-09-15T20:29:23.866Z,12.18
2022-09-15T20:31:50.989Z,12.88
2022-09-15T20:34:18.813Z,14.75
2022-09-15T20:36:45.419Z,13.75
2022-09-15T20:39:14.633Z,13.18
2022-09-15T20:41:45.198Z,14.10
2022-09-15T20:44:12.275Z,12.13
2022-09-15T20:46:39.288Z,14.65
2022-09-15T20:49:06.720Z,12.77
2022-09-15T20:51:34.238Z,13.30
2022-09-15T20:54:03.544Z,12.73
2022-09-15T20:56:32.920Z,15.02
2022-09-15T20:59:00.654Z,11.70
2022-09-15T21:01:31.859Z,13.00
2022-09-15T21:03:59.934Z,14.57
2022-09-15T21:06:27.821Z,13.38
2022-09-15T21:08:56.191Z,13.35
2022-09-15T21:11:24.166Z,13.57
2022-09-15T21:13:51.985Z,12.27
2022-09-15T21:16:21.760Z,12.65
2022-09-15T21:18:51.159Z,12.77
2022-09-15T21:21:28.379Z,12.50
2022-09-15T21:24:01.098Z,13.68
2022-09-15T21:26:30.951Z,13.40
2022-09-15T21:28:57.703Z,13.52
2022-09-15T21:31:32.509Z,13.65
2022-09-15T21:34:00.006Z,14.13
2022-09-15T21:36:31.127Z,15.57
2022-09-15T21:38:59.947Z,13.63
2022-09-15T21:41:30.038Z,12.85
2022-09-15T21:43:58.408Z,15.65
2022-09-15T21:46:31.988Z,17.92
2022-09-15T21:48:59.871Z,16.38
2022-09-15T21:51:28.503Z,16.20
2022-09-15T21:53:56.940Z,15.23
2022-09-15T21:56:24.903Z,17.92
2022-09-15T21:58:51.572Z,15.30
2022-09-15T22:01:29.342Z,15.73
2022-09-15T22:03:58.619Z,15.00
2022-09-15T22:06:31.693Z,15.07
2022-09-15T22:08:59.956Z,14.10
2022-09-15T22:11:26.600Z,13.90
2022-09-15T22:13:54.379Z,15.38
2022-09-15T22:16:23.051Z,14.27
2022-09-15T22:19:01.032Z,14.65
2022-09-15T22:21:31.578Z,15.38
2022-09-15T22:24:04.479Z,15.90
2022-09-15T22:26:35.229Z,15.77
2022-09-15T22:29:02.327Z,15.27
2022-09-15T22:31:29.705Z,15.20
2022-09-15T22:33:56.723Z,16.73
2022-09-15T22:36:30.150Z,16.15
2022-09-15T22:39:06.268Z,21.65
2022-09-15T22:44:01.437Z,17.90
2022-09-15T22:46:28.988Z,17.60
2022-09-15T22:48:55.566Z,15.18
2022-09-15T22:51:22.230Z,17.27
2022-09-15T22:53:49.015Z,15.68
2022-09-15T22:56:20.746Z,15.55
2022-09-15T22:58:49.051Z,15.20
2022-09-15T23:01:19.993Z,16.10
2022-09-15T23:03:54.447Z,20.35
2022-09-15T23:06:22.474Z,17.73
2022-09-15T23:08:56.635Z,15.88
2022-09-15T23:11:24.474Z,15.00
2022-09-15T23:13:52.540Z,16.27
2022-09-15T23:16:19.762Z,13.90
2022-09-15T23:18:56.442Z,16.48
2022-09-15T23:21:23.078Z,17.20
2022-09-15T23:23:54.263Z,17.17
2022-09-15T23:26:22.758Z,15.75
2022-09-15T23:28:49.618Z,15.10
2022-09-15T23:31:16.616Z,16.67
2022-09-15T23:33:43.741Z,16.35
2022-09-15T23:36:13.373Z,15.07
2022-09-15T23:38:41.712Z,15.00
2022-09-15T23:41:08.988Z,16.95
2022-09-15T23:43:35.987Z,16.00
2022-09-15T23:46:03.789Z,14.50
2022-09-15T23:48:32.615Z,16.13
2022-09-15T23:50:59.690Z,16.42
2022-09-15T23:53:26.445Z,17.38
2022-09-15T23:55:53.214Z,16.58
2022-09-15T23:58:19.776Z,17.48
